Time;durP1;ratioP1;P1;durP2;ratioP2;P2;SDS_P1;SDS_P2;PMS_P1;PMS_P2;Temp;Humidity;BMP_temperature;BMP_pressure;BME280_temperature;BME280_humidity;BME280_pressure;Samples;Min_cycle;Max_cycle;Signal;HPM_P1;HPM_P2
2020/12/01 00:01:18;595187.00;1.98;1025.91;0.00;0.00;0.62;;;;;4.30;1.00;;;;;;2259621;61;970;-89
2020/12/01 00:03:44;682822.00;2.28;1177.46;0.00;0.00;0.62;;;;;4.30;1.00;;;;;;2259566;61;963;-88
2020/12/01 00:06:11;608605.00;2.03;1049.08;0.00;0.00;0.62;;;;;4.10;1.00;;;;;;2253369;61;1320;-87
2020/12/01 00:08:38;719879.00;2.40;1241.73;0.00;0.00;0.62;;;;;4.00;1.00;;;;;;2259963;61;979;-88
2020/12/01 00:11:07;532453.00;1.77;917.72;0.00;0.00;0.62;;;;;3.90;1.00;;;;;;2260485;61;1030;-88
2020/12/01 00:13:34;640389.00;2.13;1104.01;0.00;0.00;0.62;;;;;4.10;1.00;;;;;;2264523;61;1284;-87
2020/12/01 00:16:01;608646.00;2.03;1049.15;15375.00;0.05;27.26;;;;;4.40;1.00;;;;;;2261077;61;1365;-88
2020/12/01 00:18:27;607197.00;2.02;1046.65;0.00;0.00;0.62;;;;;4.30;1.00;;;;;;2264227;61;1924;-87
2020/12/01 00:20:54;653197.00;2.18;1126.17;0.00;0.00;0.62;;;;;4.20;1.00;;;;;;2264334;61;1196;-87
2020/12/01 00:23:20;604224.00;2.01;1041.51;0.00;0.00;0.62;;;;;4.40;1.00;;;;;;2260807;61;1108;-87
2020/12/01 00:25:48;650628.00;2.17;1121.72;0.00;0.00;0.62;;;;;4.40;1.00;;;;;;2261200;61;1353;-87
2020/12/01 00:28:16;670392.00;2.23;1155.93;0.00;0.00;0.62;;;;;4.40;1.00;;;;;;2265571;61;1008;-87
2020/12/01 00:30:43;681075.00;2.27;1174.44;0.00;0.00;0.62;;;;;4.40;1.00;;;;;;2269203;61;1175;-87
2020/12/01 00:33:10;437406.00;1.46;754.12;0.00;0.00;0.62;;;;;4.50;1.00;;;;;;2276531;61;1065;-88
2020/12/01 00:35:38;575275.00;1.92;991.55;0.00;0.00;0.62;;;;;4.50;1.00;;;;;;2276729;61;1276;-88
2020/12/01 00:38:04;471142.00;1.57;812.15;0.00;0.00;0.62;;;;;4.10;1.00;;;;;;2276770;61;1927;-88
2020/12/01 00:40:31;541108.00;1.80;932.63;0.00;0.00;0.62;;;;;3.90;1.00;;;;;;2269741;61;1181;-87
2020/12/01 00:42:57;810825.00;2.70;1400.01;0.00;0.00;0.62;;;;;3.80;1.00;;;;;;2276701;61;1700;-87
2020/12/01 00:45:25;543970.00;1.81;937.57;0.00;0.00;0.62;;;;;4.10;1.00;;;;;;2269601;61;1081;-87
2020/12/01 00:47:51;666511.00;2.22;1149.21;0.00;0.00;0.62;;;;;4.00;1.00;;;;;;2268015;61;1312;-86
2020/12/01 00:50:22;560573.00;1.87;966.19;0.00;0.00;0.62;;;;;4.00;1.00;;;;;;2268228;61;1031;-87
2020/12/01 00:52:49;736254.00;2.45;1270.17;0.00;0.00;0.62;;;;;3.90;1.00;;;;;;2261546;61;999;-87
2020/12/01 00:55:15;542526.00;1.81;935.08;0.00;0.00;0.62;;;;;4.10;1.00;;;;;;2268138;61;1186;-88
2020/12/01 01:00:17;692212.00;2.31;1193.74;30345.00;0.10;53.18;;;;;4.20;1.00;;;;;;2269997;61;1966;-88
2020/12/01 01:02:45;665780.00;2.22;1147.95;0.00;0.00;0.62;;;;;4.20;1.00;;;;;;2264913;61;977;-87
2020/12/01 01:05:12;644124.00;2.15;1110.47;0.00;0.00;0.62;;;;;4.30;1.00;;;;;;2268654;61;1148;-88
2020/12/01 01:07:41;898399.00;2.99;1553.31;38478.00;0.13;67.26;;;;;4.20;1.00;;;;;;2264812;61;1461;-88
2020/12/01 01:10:15;777511.00;2.59;1341.93;0.00;0.00;0.62;;;;;4.40;1.00;;;;;;2264873;61;1035;-87
2020/12/01 01:12:41;567954.00;1.89;978.92;0.00;0.00;0.62;;;;;4.50;1.00;;;;;;2264867;61;1017;-88
2020/12/01 01:15:09;573582.00;1.91;988.63;0.00;0.00;0.62;;;;;4.30;1.00;;;;;;2264831;61;928;-88
2020/12/01 01:17:36;759855.00;2.53;1311.20;0.00;0.00;0.62;;;;;4.50;1.00;;;;;;2264749;61;1501;-88
2020/12/01 01:20:03;761207.00;2.54;1313.55;13283.00;0.04;23.64;;;;;4.40;1.00;;;;;;2259990;61;1923;-87
2020/12/01 01:22:30;771792.00;2.57;1331.97;7695.00;0.03;13.96;;;;;4.30;1.00;;;;;;2260076;61;962;-89
2020/12/01 01:24:57;623428.00;2.08;1074.69;0.00;0.00;0.62;;;;;4.30;1.00;;;;;;2260122;61;1035;-88
2020/12/01 01:27:23;604895.00;2.02;1042.67;0.00;0.00;0.62;;;;;4.70;1.00;;;;;;2256012;61;1444;-87
2020/12/01 01:34:57;396160.00;1.32;683.20;0.00;0.00;0.62;;;;;4.60;1.00;;;;;;2273923;61;1424;-88
2020/12/01 01:37:25;474937.00;1.58;818.68;0.00;0.00;0.62;;;;;4.80;1.00;;;;;;2272580;61;1392;-88
2020/12/01 01:39:51;545769.00;1.82;940.67;0.00;0.00;0.62;;;;;4.90;1.00;;;;;;2272571;61;1921;-89
2020/12/01 01:42:18;670490.00;2.23;1156.10;21497.00;0.07;37.86;;;;;5.00;1.00;;;;;;2265478;61;1024;-89
2020/12/01 01:44:44;688482.00;2.29;1187.27;0.00;0.00;0.62;;;;;5.10;1.00;;;;;;2267991;61;1030;-88
2020/12/01 01:47:19;589157.00;1.96;1015.50;0.00;0.00;0.62;;;;;5.10;1.00;;;;;;2261311;61;1389;-87
2020/12/01 02:19:30;871242.00;2.90;1505.67;4285.00;0.01;8.05;;;;;5.60;1.00;;;;;;2274109;61;1889;-88
2020/12/01 02:21:58;517582.00;1.73;892.10;0.00;0.00;0.62;;;;;5.70;1.00;;;;;;2272287;61;1730;-90
2020/12/01 02:29:38;817962.00;2.73;1412.47;0.00;0.00;0.62;;;;;5.70;1.00;;;;;;2273988;61;1403;-88
2020/12/01 02:32:06;390723.00;1.30;673.86;0.00;0.00;0.62;;;;;5.70;1.00;;;;;;2272466;61;986;-89
2020/12/01 02:34:36;504071.00;1.68;868.83;0.00;0.00;0.62;;;;;5.90;1.00;;;;;;2272355;61;1603;-89
2020/12/01 02:37:04;837890.00;2.79;1447.29;86452.00;0.29;150.18;;;;;6.10;1.00;;;;;;2272275;61;1620;-89
2020/12/01 02:39:31;760842.00;2.54;1312.91;0.00;0.00;0.62;;;;;6.40;1.00;;;;;;2272362;61;2009;-89
2020/12/01 02:42:00;485406.00;1.62;836.70;0.00;0.00;0.62;;;;;6.30;1.00;;;;;;2263854;61;976;-89
2020/12/01 02:44:29;591484.00;1.97;1019.52;0.00;0.00;0.62;;;;;6.20;1.00;;;;;;2263821;61;1096;-90
2020/12/01 02:46:57;524360.00;1.75;903.78;0.00;0.00;0.62;;;;;6.10;1.00;;;;;;2263685;61;1420;-89
2020/12/01 02:49:23;499118.00;1.66;860.31;0.00;0.00;0.62;;;;;6.10;1.00;;;;;;2263774;61;1532;-89
2020/12/01 02:51:50;691545.00;2.31;1192.58;0.00;0.00;0.62;;;;;6.00;1.00;;;;;;2263796;61;1510;-89
2020/12/01 02:54:16;664677.00;2.22;1146.04;0.00;0.00;0.62;;;;;5.80;1.00;;;;;;2263819;61;1089;-88
2020/12/01 02:56:45;631912.00;2.11;1089.35;0.00;0.00;0.62;;;;;5.90;1.00;;;;;;2263718;61;1733;-89
2020/12/01 02:59:12;624610.00;2.08;1076.73;0.00;0.00;0.62;;;;;5.80;1.00;;;;;;2265160;61;2006;-88
2020/12/01 03:01:39;422727.00;1.41;728.88;0.00;0.00;0.62;;;;;5.90;1.00;;;;;;2272295;61;1759;-89
2020/12/01 03:04:05;118172024.00;393.91;66846736.00;117438448.00;391.46;65608460.00;;;;;6.10;1.00;;;;;;2272339;61;1743;-89
2020/12/01 03:06:32;615890.00;2.05;1061.66;0.00;0.00;0.62;;;;;5.70;1.00;;;;;;2272296;61;1253;-89
2020/12/01 03:08:59;603551.00;2.01;1040.35;0.00;0.00;0.62;;;;;5.70;1.00;;;;;;2272233;61;1511;-89
2020/12/01 03:11:26;552794.00;1.84;952.78;0.00;0.00;0.62;;;;;5.60;1.00;;;;;;2271741;61;1602;-88
2020/12/01 03:13:52;564611.00;1.88;973.15;0.00;0.00;0.62;;;;;5.70;1.00;;;;;;2271811;61;1111;-89
2020/12/01 03:16:19;633673.00;2.11;1092.40;106034.00;0.35;183.99;;;;;5.80;1.00;;;;;;2271724;61;1565;-89
2020/12/01 03:18:46;539963.00;1.80;930.66;0.00;0.00;0.62;;;;;5.70;1.00;;;;;;2271740;61;1914;-92
2020/12/01 03:21:15;608015.00;2.03;1048.06;0.00;0.00;0.62;;;;;5.40;1.00;;;;;;2271689;61;1749;-90
2020/12/01 03:23:42;119646464.00;398.82;69382560.00;118959952.00;396.53;68194024.00;;;;;5.50;1.00;;;;;;2271781;61;938;-89
2020/12/01 03:26:10;776449.00;2.59;1340.08;71983.00;0.24;125.19;;;;;5.60;1.00;;;;;;2271736;61;1428;-87
2020/12/01 03:28:37;697890.00;2.33;1203.58;92419.00;0.31;160.48;;;;;5.50;1.00;;;;;;2271777;61;962;-90
2020/12/01 03:31:03;857710.00;2.86;1481.96;83051.00;0.28;144.31;;;;;5.50;1.00;;;;;;2272185;61;1731;-87
2020/12/01 03:33:30;631703.00;2.11;1088.99;104414.00;0.35;181.19;;;;;5.60;1.00;;;;;;2272169;61;1411;-89
2020/12/01 03:35:57;847652.00;2.83;1464.36;83397.00;0.28;144.90;;;;;5.60;1.00;;;;;;2272210;61;1415;-87
2020/12/01 03:38:24;846081.00;2.82;1461.61;95261.00;0.32;165.39;;;;;5.80;1.00;;;;;;2272182;61;1925;-90
2020/12/01 03:40:51;763766.00;2.55;1318.00;101616.00;0.34;176.36;;;;;5.70;1.00;;;;;;2272212;61;1703;-89
2020/12/01 03:43:17;903565.00;3.01;1562.38;97764.00;0.33;169.71;;;;;5.50;1.00;;;;;;2272196;61;1735;-89
2020/12/01 03:45:44;795784.00;2.65;1373.77;91195.00;0.30;158.37;;;;;5.50;1.00;;;;;;2272139;61;1709;-89
2020/12/01 03:48:11;683606.00;2.28;1178.82;108425.00;0.36;188.11;;;;;5.60;1.00;;;;;;2272135;61;1519;-88
2020/12/01 03:50:39;727540.00;2.43;1255.03;101321.00;0.34;175.85;;;;;5.60;1.00;;;;;;2272216;61;1095;-89
2020/12/01 03:53:07;630745.00;2.10;1087.34;100064.00;0.33;173.68;;;;;5.70;1.00;;;;;;2272145;61;1712;-88
2020/12/01 03:55:34;670810.00;2.24;1156.66;90811.00;0.30;157.71;;;;;5.50;1.00;;;;;;2272169;61;1288;-88
2020/12/01 03:58:00;696487.00;2.32;1201.15;91339.00;0.30;158.62;;;;;5.50;1.00;;;;;;2271896;61;1202;-89
2020/12/01 04:00:29;832268.00;2.77;1437.46;75131.00;0.25;130.63;;;;;5.50;1.00;;;;;;2272763;61;2041;-90
2020/12/01 04:02:56;119595040.00;398.65;69293072.00;104551.00;0.35;181.43;;;;;5.50;1.00;;;;;;2272801;61;1586;-89
2020/12/01 04:05:25;878078.00;2.93;1517.65;92974.00;0.31;161.44;;;;;5.70;1.00;;;;;;2272798;61;1582;-90
2020/12/01 04:07:52;961764.00;3.21;1664.87;91461.00;0.30;158.83;;;;;5.80;1.00;;;;;;2272820;61;1306;-89
2020/12/01 04:10:22;909716.00;3.03;1573.19;86211.00;0.29;149.76;;;;;5.80;1.00;;;;;;2272809;61;1619;-90
2020/12/01 04:12:48;1104843.00;3.68;1919.09;166676.00;0.56;288.54;;;;;5.80;1.00;;;;;;2272878;61;950;-91
2020/12/01 04:15:18;780888.00;2.60;1347.81;54098.00;0.18;94.27;;;;;5.80;1.00;;;;;;2272827;61;1099;-90
2020/12/01 04:17:45;857337.00;2.86;1481.31;129224.00;0.43;223.99;;;;;5.80;1.00;;;;;;2272791;61;1600;-88
2020/12/01 04:20:13;971964.00;3.24;1682.88;97373.00;0.32;169.04;;;;;5.70;1.00;;;;;;2272720;61;1915;-90
2020/12/01 04:22:39;913365.00;3.04;1579.61;88952.00;0.30;154.50;;;;;6.00;1.00;;;;;;2272786;61;1071;-89
2020/12/01 04:25:09;639856.00;2.13;1103.09;85405.00;0.28;148.37;;;;;6.10;1.00;;;;;;2272767;61;1552;-91
2020/12/01 04:27:37;1035776.00;3.45;1795.94;90199.00;0.30;156.65;;;;;6.20;1.00;;;;;;2272666;61;1380;-88
2020/12/01 04:32:32;1272193.00;4.24;2221.30;90414.00;0.30;157.02;;;;;5.50;1.00;;;;;;2278484;60;1384;-90
2020/12/01 04:34:59;1037655.00;3.46;1799.28;138977.00;0.46;240.81;;;;;5.70;1.00;;;;;;2276290;61;914;-90
2020/12/01 04:37:25;860330.00;2.87;1486.55;76655.00;0.26;133.26;;;;;5.80;1.00;;;;;;2276272;61;1395;-92
2020/12/01 04:39:52;982294.00;3.27;1701.14;85161.00;0.28;147.95;;;;;6.10;1.00;;;;;;2276302;61;1921;-89
2020/12/01 04:42:21;776003.00;2.59;1339.30;95562.00;0.32;165.91;;;;;6.10;1.00;;;;;;2276305;61;1081;-88
2020/12/01 04:44:57;933522.00;3.11;1615.07;69656.00;0.23;121.17;;;;;5.90;1.00;;;;;;2276323;61;1009;-89
2020/12/01 04:47:29;867848.00;2.89;1499.72;92909.00;0.31;161.33;;;;;5.90;1.00;;;;;;2276289;61;1296;-90
2020/12/01 04:50:02;1179471.00;3.93;2053.15;88433.00;0.29;153.60;;;;;6.10;1.00;;;;;;2276344;61;1011;-88
2020/12/01 04:53:20;682096.00;2.27;1176.20;66483.00;0.22;115.68;;;;;6.40;1.00;;;;;;2275246;61;1033;-89
2020/12/01 04:56:24;666095.00;2.22;1148.49;0.00;0.00;0.62;;;;;6.50;1.00;;;;;;2272623;61;1742;-89
2020/12/01 04:59:14;542724.00;1.81;935.42;0.00;0.00;0.62;;;;;5.90;1.00;;;;;;2272732;61;1919;-90
2020/12/01 05:02:16;924380.00;3.08;1598.98;73665.00;0.25;128.09;;;;;5.70;1.00;;;;;;2272685;61;1601;-89
2020/12/01 05:04:58;882496.00;2.94;1525.40;83116.00;0.28;144.42;;;;;5.20;1.00;;;;;;2272650;61;1013;-89
2020/12/01 05:07:41;870546.00;2.90;1504.45;87365.00;0.29;151.76;;;;;5.10;1.00;;;;;;2272657;61;1470;-89
2020/12/01 05:10:13;941803.00;3.14;1629.66;109428.00;0.36;189.84;;;;;5.10;1.00;;;;;;2272591;61;1021;-89
2020/12/01 05:12:43;713605.00;2.38;1230.84;91768.00;0.31;159.36;;;;;5.10;1.00;;;;;;2272670;61;1046;-90
2020/12/01 05:15:17;747223.00;2.49;1289.23;95523.00;0.32;165.84;;;;;5.30;1.00;;;;;;2268075;61;1072;-88
2020/12/01 05:18:02;903489.00;3.01;1562.25;78142.00;0.26;135.83;;;;;5.40;1.00;;;;;;2268020;61;1530;-88
2020/12/01 05:20:29;857249.00;2.86;1481.16;101682.00;0.34;176.48;;;;;5.60;1.00;;;;;;2268042;61;1998;-89
2020/12/01 05:22:59;792667.00;2.64;1368.34;88560.00;0.30;153.82;;;;;5.70;1.00;;;;;;2268132;61;1043;-88
2020/12/01 05:25:28;971522.00;3.24;1682.10;86881.00;0.29;150.92;;;;;6.00;1.00;;;;;;2272084;61;955;-88
2020/12/01 05:28:07;781728.00;2.61;1349.28;64459.00;0.21;112.18;;;;;6.00;1.00;;;;;;2272101;61;1321;-88
2020/12/01 05:30:35;666375.00;2.22;1148.98;93044.00;0.31;161.56;;;;;6.30;1.00;;;;;;2272053;61;1268;-88
2020/12/01 05:33:13;917841.00;3.06;1587.48;81222.00;0.27;141.15;;;;;6.60;1.00;;;;;;2273890;60;948;-89
2020/12/01 05:35:39;864271.00;2.88;1493.45;82299.00;0.27;143.01;;;;;6.60;1.00;;;;;;2276112;60;1740;-89
2020/12/01 05:38:20;844512.00;2.82;1458.87;92006.00;0.31;159.77;;;;;6.60;1.00;;;;;;2276156;60;1063;-89
2020/12/01 05:40:50;967762.00;3.23;1675.46;88346.00;0.29;153.45;;;;;6.70;1.00;;;;;;2275983;60;2013;-89
2020/12/01 05:43:36;738874.00;2.46;1274.72;92814.00;0.31;161.17;;;;;7.10;1.00;;;;;;2274585;60;1015;-88
2020/12/01 05:46:14;637041.00;2.12;1098.22;0.00;0.00;0.62;;;;;7.60;1.00;;;;;;2272414;61;1732;-88
2020/12/01 05:48:58;873270.00;2.91;1509.22;0.00;0.00;0.62;;;;;8.00;1.00;;;;;;2272551;61;986;-88
2020/12/01 05:51:28;552038.00;1.84;951.47;0.00;0.00;0.62;;;;;7.40;1.00;;;;;;2272491;61;1570;-88
2020/12/01 05:53:57;726922.00;2.42;1253.96;0.00;0.00;0.62;;;;;7.30;1.00;;;;;;2272471;61;1176;-88
2020/12/01 05:56:23;495972.00;1.65;854.89;0.00;0.00;0.62;;;;;7.40;1.00;;;;;;2272464;61;1276;-88
2020/12/01 05:58:57;598479.00;1.99;1031.59;0.00;0.00;0.62;;;;;7.90;1.00;;;;;;2272478;61;1997;-89
2020/12/01 06:01:24;761087.00;2.54;1313.34;0.00;0.00;0.62;;;;;7.50;1.00;;;;;;2272424;61;1642;-89
2020/12/01 06:04:05;853216.00;2.84;1474.10;0.00;0.00;0.62;;;;;7.50;1.00;;;;;;2272394;61;2057;-88
2020/12/01 06:06:47;587196.00;1.96;1012.12;0.00;0.00;0.62;;;;;7.40;1.00;;;;;;2272361;61;1467;-87
2020/12/01 06:09:27;571072.00;1.90;984.30;0.00;0.00;0.62;;;;;7.90;1.00;;;;;;2272455;61;1112;-88
2020/12/01 06:12:04;754584.00;2.52;1302.03;0.00;0.00;0.62;;;;;8.10;1.00;;;;;;2272477;61;1091;-87
2020/12/01 06:14:40;599176.00;2.00;1032.80;82932.00;0.28;144.10;;;;;8.60;1.00;;;;;;2272490;61;1087;-89
2020/12/01 06:17:12;337464.00;1.12;582.31;0.00;0.00;0.62;;;;;8.90;1.00;;;;;;2272401;61;1635;-88
2020/12/01 06:19:48;437126.00;1.46;753.64;0.00;0.00;0.62;;;;;9.10;1.00;;;;;;2272335;61;2007;-88
2020/12/01 06:22:46;434317.00;1.45;748.81;0.00;0.00;0.62;;;;;9.40;1.00;;;;;;2272176;61;1451;-87
2020/12/01 06:25:36;695603.00;2.32;1199.61;80905.00;0.27;140.60;;;;;9.60;1.00;;;;;;2272430;61;930;-88
2020/12/01 06:28:22;602280.00;2.01;1038.16;89071.00;0.30;154.70;;;;;9.90;1.00;;;;;;2272342;61;1031;-88
2020/12/01 06:31:07;419467.00;1.40;723.27;0.00;0.00;0.62;;;;;9.90;1.00;;;;;;2272358;61;1134;-87
2020/12/01 06:34:17;275243.00;0.92;475.36;0.00;0.00;0.62;;;;;10.10;1.00;;;;;;2272424;61;1115;-89
2020/12/01 06:37:29;393975.00;1.31;679.45;0.00;0.00;0.62;;;;;9.70;1.00;;;;;;2264527;61;1473;-88
2020/12/01 06:40:28;540175.00;1.80;931.02;0.00;0.00;0.62;;;;;9.20;1.00;;;;;;2272343;61;1930;-87
2020/12/01 06:43:02;334912.00;1.12;577.93;0.00;0.00;0.62;;;;;9.00;1.00;;;;;;2272376;61;1177;-88
2020/12/01 06:45:33;370839.00;1.24;639.68;0.00;0.00;0.62;;;;;9.10;1.00;;;;;;2272337;61;1128;-87
2020/12/01 06:48:08;385341.00;1.28;664.61;0.00;0.00;0.62;;;;;8.80;1.00;;;;;;2272348;61;1427;-87
2020/12/01 06:50:38;371692.00;1.24;641.15;0.00;0.00;0.62;;;;;8.50;1.00;;;;;;2272316;61;1026;-88
2020/12/01 06:53:06;382748.00;1.28;660.15;0.00;0.00;0.62;;;;;8.50;1.00;;;;;;2272252;61;1698;-88
2020/12/01 06:55:50;614776.00;2.05;1059.74;0.00;0.00;0.62;;;;;8.40;1.00;;;;;;2272369;61;1049;-87
2020/12/01 06:58:37;429261.00;1.43;740.11;0.00;0.00;0.62;;;;;8.60;1.00;;;;;;2272371;61;993;-88
2020/12/01 07:01:06;634971.00;2.12;1094.64;87038.00;0.29;151.19;;;;;8.50;1.00;;;;;;2271975;61;2021;-88
2020/12/01 07:03:33;635557.00;2.12;1095.66;90204.00;0.30;156.66;;;;;8.80;1.00;;;;;;2272300;61;1232;-87
2020/12/01 07:06:13;506775.00;1.69;873.49;83049.00;0.28;144.30;;;;;8.70;1.00;;;;;;2272339;61;1399;-88
2020/12/01 07:08:40;868624.00;2.90;1501.08;123635.00;0.41;214.35;;;;;8.60;1.00;;;;;;2272375;61;1059;-88
2020/12/01 07:11:12;549351.00;1.83;946.84;85656.00;0.29;148.81;;;;;8.20;1.00;;;;;;2272329;61;1114;-87
2020/12/01 07:13:53;755554.00;2.52;1303.72;93696.00;0.31;162.69;;;;;8.40;1.00;;;;;;2272279;61;984;-88
2020/12/01 07:16:29;630655.00;2.10;1087.18;87199.00;0.29;151.47;;;;;8.30;1.00;;;;;;2272275;61;1312;-87
2020/12/01 07:19:03;891672.00;2.97;1541.50;91356.00;0.30;158.65;;;;;8.40;1.00;;;;;;2272241;61;1985;-88
2020/12/01 07:21:47;938834.00;3.13;1624.43;183201.00;0.61;317.00;;;;;8.30;1.00;;;;;;2272169;61;1703;-87
2020/12/01 07:24:22;787676.00;2.63;1359.64;89860.00;0.30;156.07;;;;;8.10;1.00;;;;;;2272184;61;1914;-88
2020/12/01 07:26:58;125577520.00;418.59;80231600.00;84532.00;0.28;146.87;;;;;8.20;1.00;;;;;;2272205;61;1482;-88
2020/12/01 07:29:49;813180.00;2.71;1404.12;88161.00;0.29;153.13;;;;;8.20;1.00;;;;;;2272160;61;1083;-87
2020/12/01 07:32:20;517025.00;1.72;891.14;0.00;0.00;0.62;;;;;8.00;1.00;;;;;;2272054;61;1565;-86
2020/12/01 07:34:48;592085.00;1.97;1020.56;0.00;0.00;0.62;;;;;7.40;1.00;;;;;;2272746;61;1111;-87
2020/12/01 07:37:50;853994.00;2.85;1475.46;87772.00;0.29;152.46;;;;;7.70;1.00;;;;;;2272878;61;1369;-87
2020/12/01 07:40:24;526763.00;1.76;907.91;0.00;0.00;0.62;;;;;8.10;1.00;;;;;;2272828;61;1922;-87
2020/12/01 07:42:59;506863.00;1.69;873.64;0.00;0.00;0.62;;;;;8.00;1.00;;;;;;2272895;61;1067;-87
2020/12/01 07:45:27;595062.00;1.98;1025.69;0.00;0.00;0.62;;;;;8.10;1.00;;;;;;2272932;61;1131;-86
2020/12/01 07:47:59;651180.00;2.17;1122.68;0.00;0.00;0.62;;;;;8.00;1.00;;;;;;2272923;61;1169;-88
2020/12/01 07:50:28;587350.00;1.96;1012.38;0.00;0.00;0.62;;;;;8.10;1.00;;;;;;2272897;61;1114;-87
2020/12/01 07:53:00;392648.00;1.31;677.17;0.00;0.00;0.62;;;;;8.10;1.00;;;;;;2272818;61;1632;-87
2020/12/01 07:55:34;372442.00;1.24;642.43;0.00;0.00;0.62;;;;;8.40;1.00;;;;;;2272919;61;1006;-87
2020/12/01 07:58:06;592695.00;1.98;1021.61;0.00;0.00;0.62;;;;;8.50;1.00;;;;;;2272753;61;1076;-87
2020/12/01 08:00:34;598127.00;1.99;1030.99;0.00;0.00;0.62;;;;;8.50;1.00;;;;;;2272763;61;1992;-88
2020/12/01 08:03:12;516480.00;1.72;890.20;0.00;0.00;0.62;;;;;8.80;1.00;;;;;;2272790;61;999;-88
2020/12/01 08:05:39;450681.00;1.50;776.95;0.00;0.00;0.62;;;;;8.70;1.00;;;;;;2272508;61;1376;-87
2020/12/01 08:08:06;560656.00;1.87;966.33;0.00;0.00;0.62;;;;;8.60;1.00;;;;;;2272337;61;1709;-87
2020/12/01 08:10:33;563645.00;1.88;971.49;0.00;0.00;0.62;;;;;8.50;1.00;;;;;;2272162;61;1708;-87
2020/12/01 08:13:05;454676.00;1.52;783.83;0.00;0.00;0.62;;;;;8.60;1.00;;;;;;2272598;61;1708;-87
2020/12/01 08:15:33;373176.00;1.24;643.70;0.00;0.00;0.62;;;;;8.90;1.00;;;;;;2272800;61;1248;-87
2020/12/01 08:18:04;492005.00;1.64;848.06;0.00;0.00;0.62;;;;;9.40;1.00;;;;;;2272727;61;1486;-88
2020/12/01 08:20:31;397484.00;1.32;685.48;0.00;0.00;0.62;;;;;10.00;1.00;;;;;;2272309;61;1989;-88
2020/12/01 08:23:05;490594.00;1.64;845.63;0.00;0.00;0.62;;;;;10.20;1.00;;;;;;2272162;61;1428;-88
2020/12/01 08:25:33;538008.00;1.79;927.29;31531.00;0.11;55.23;;;;;9.90;1.00;;;;;;2272458;61;958;-87
2020/12/01 08:28:22;637606.00;2.13;1099.20;0.00;0.00;0.62;;;;;10.10;1.00;;;;;;2272585;61;1319;-87
2020/12/01 08:30:58;370442.00;1.23;639.00;0.00;0.00;0.62;;;;;10.50;1.00;;;;;;2272599;61;1661;-88
2020/12/01 08:33:42;252388.00;0.84;436.06;0.00;0.00;0.62;;;;;10.50;1.00;;;;;;2272773;61;1010;-88
2020/12/01 08:36:26;463214.00;1.54;798.51;51779.00;0.17;90.26;;;;;10.50;1.00;;;;;;2272699;61;1319;-87
2020/12/01 08:39:11;309072.00;1.03;533.51;0.00;0.00;0.62;;;;;10.30;1.00;;;;;;2272703;61;1072;-87
2020/12/01 08:41:49;362470.00;1.21;625.29;0.00;0.00;0.62;;;;;10.00;1.00;;;;;;2272737;61;1014;-86
2020/12/01 08:44:30;331613.00;1.11;572.26;0.00;0.00;0.62;;;;;10.10;1.00;;;;;;2272709;61;1126;-85
2020/12/01 08:46:57;529840.00;1.77;913.22;0.00;0.00;0.62;;;;;10.30;1.00;;;;;;2272489;61;1452;-86
2020/12/01 08:49:24;507186.00;1.69;874.20;9753.00;0.03;17.52;;;;;10.20;1.00;;;;;;2272630;61;1559;-86
2020/12/01 08:51:56;373363.00;1.24;644.02;0.00;0.00;0.62;;;;;10.50;1.00;;;;;;2272687;61;1056;-87
2020/12/01 08:54:28;244490.00;0.81;422.47;0.00;0.00;0.62;;;;;10.90;1.00;;;;;;2272731;61;939;-86
2020/12/01 08:57:20;235056.00;0.78;406.25;0.00;0.00;0.62;;;;;10.70;1.00;;;;;;2272656;61;1436;-87
2020/12/01 08:59:53;390795.00;1.30;673.98;0.00;0.00;0.62;;;;;11.00;1.00;;;;;;2272602;61;1989;-87
2020/12/01 09:02:21;188066.00;0.63;325.38;0.00;0.00;0.62;;;;;10.80;1.00;;;;;;2272663;61;1040;-86
2020/12/01 09:05:00;251596.00;0.84;434.70;0.00;0.00;0.62;;;;;10.80;1.00;;;;;;2272654;61;1056;-87
2020/12/01 09:07:30;233254.00;0.78;403.15;0.00;0.00;0.62;;;;;10.90;1.00;;;;;;2272578;61;1700;-87
2020/12/01 09:10:11;391669.00;1.31;675.48;0.00;0.00;0.62;;;;;11.10;1.00;;;;;;2272645;61;1138;-87
2020/12/01 09:12:41;410311.00;1.37;707.53;0.00;0.00;0.62;;;;;10.90;1.00;;;;;;2272635;61;1163;-86
2020/12/01 09:15:36;304761.00;1.02;526.10;0.00;0.00;0.62;;;;;11.40;1.00;;;;;;2272599;61;1438;-86
2020/12/01 09:18:20;298370.00;0.99;515.12;0.00;0.00;0.62;;;;;11.40;1.00;;;;;;2272535;61;1643;-87
2020/12/01 09:21:03;219482.00;0.73;379.45;0.00;0.00;0.62;;;;;11.50;1.00;;;;;;2272540;61;1921;-87
2020/12/01 09:23:35;265067.00;0.88;457.86;0.00;0.00;0.62;;;;;11.60;1.00;;;;;;2272637;61;1137;-87
2020/12/01 09:26:15;354506.00;1.18;611.61;0.00;0.00;0.62;;;;;11.80;1.00;;;;;;2263921;61;1429;-87
2020/12/01 09:28:47;188459.00;0.63;326.06;0.00;0.00;0.62;;;;;11.80;1.00;;;;;;2264038;61;1019;-87
2020/12/01 09:31:13;219506.00;0.73;379.49;0.00;0.00;0.62;;;;;11.70;1.00;;;;;;2260589;61;1078;-87
2020/12/01 09:33:41;302072.00;1.01;521.48;0.00;0.00;0.62;;;;;11.80;1.00;;;;;;2263904;61;1090;-88
2020/12/01 09:36:07;197515.00;0.66;341.65;0.00;0.00;0.62;;;;;12.00;1.00;;;;;;2263936;61;1420;-87
2020/12/01 09:38:34;328295.00;1.09;566.56;0.00;0.00;0.62;;;;;12.00;1.00;;;;;;2263993;61;1052;-84
2020/12/01 09:41:00;289002.00;0.96;499.01;0.00;0.00;0.62;;;;;12.10;1.00;;;;;;2263946;61;1936;-87
2020/12/01 09:43:31;260743.00;0.87;450.43;0.00;0.00;0.62;;;;;11.70;1.00;;;;;;2266036;61;1098;-87
2020/12/01 09:46:03;158624.00;0.53;274.67;0.00;0.00;0.62;;;;;12.00;1.00;;;;;;2272425;61;1377;-86
2020/12/01 09:48:32;238976.00;0.80;412.99;0.00;0.00;0.62;;;;;11.80;1.00;;;;;;2272454;61;1026;-86
2020/12/01 09:51:00;249155.00;0.83;430.50;0.00;0.00;0.62;;;;;11.70;1.00;;;;;;2272466;61;1018;-86
2020/12/01 09:53:36;302581.00;1.01;522.36;0.00;0.00;0.62;;;;;11.10;1.00;;;;;;2272518;61;1106;-86
2020/12/01 09:56:08;306281.00;1.02;528.72;0.00;0.00;0.62;;;;;11.00;1.00;;;;;;2272412;61;1560;-87
2020/12/01 09:59:02;363706.00;1.21;627.42;0.00;0.00;0.62;;;;;10.70;1.00;;;;;;2272186;61;1066;-87
2020/12/01 10:12:45;270063.00;0.90;466.45;0.00;0.00;0.62;;;;;9.30;1.00;;;;;;2272454;61;692;-88
2020/12/01 10:18:23;404105.00;1.35;696.86;0.00;0.00;0.62;;;;;9.20;1.00;;;;;;2272330;61;1426;-89
2020/12/01 10:34:46;437419.00;1.46;754.14;0.00;0.00;0.62;;;;;9.30;1.00;;;;;;2272342;61;925;-87
2020/12/01 10:37:13;512257.00;1.71;882.93;0.00;0.00;0.62;;;;;9.40;1.00;;;;;;2272284;61;1375;-87
2020/12/01 10:39:41;590157.00;1.97;1017.23;0.00;0.00;0.62;;;;;9.40;1.00;;;;;;2272294;61;1911;-87
2020/12/01 10:42:08;609423.00;2.03;1050.49;34166.00;0.11;59.79;;;;;9.90;1.00;;;;;;2272230;61;1577;-87
2020/12/01 10:44:35;639260.00;2.13;1102.06;0.00;0.00;0.62;;;;;10.10;1.00;;;;;;2272271;61;2151;-86
2020/12/01 10:47:08;621364.00;2.07;1071.12;0.00;0.00;0.62;;;;;10.10;1.00;;;;;;2272279;61;1358;-87
2020/12/01 10:49:38;563509.00;1.88;971.25;0.00;0.00;0.62;;;;;10.70;1.00;;;;;;2272347;61;910;-86
2020/12/01 10:52:08;845332.00;2.82;1460.30;0.00;0.00;0.62;;;;;11.00;1.00;;;;;;2272276;61;1551;-87
2020/12/01 10:54:35;1283849.00;4.28;2242.58;71749.00;0.24;124.78;;;;;10.80;1.00;;;;;;2272290;61;1703;-86
2020/12/01 10:57:03;1299078.00;4.33;2270.42;60689.00;0.20;105.67;;;;;10.70;1.00;;;;;;2272278;61;1748;-86
2020/12/01 10:59:33;741034.00;2.47;1278.47;0.00;0.00;0.62;;;;;10.70;1.00;;;;;;2272203;61;1919;-87
2020/12/01 11:02:00;1267364.00;4.22;2212.50;12789.00;0.04;22.78;;;;;10.80;1.00;;;;;;2272265;61;1574;-87
2020/12/01 11:04:27;1223212.00;4.08;2132.24;51999.00;0.17;90.64;;;;;10.50;1.00;;;;;;2272271;61;1651;-87
2020/12/01 11:06:53;1179792.00;3.93;2053.73;14196.00;0.05;25.22;;;;;9.70;1.00;;;;;;2272247;61;1300;-86
2020/12/01 11:09:23;801084.00;2.67;1383.01;36260.00;0.12;63.42;;;;;9.40;1.00;;;;;;2272138;61;1160;-87
2020/12/01 11:11:49;1939836.00;6.47;3501.51;84354.00;0.28;146.56;;;;;9.20;1.00;;;;;;2265238;61;1046;-88
2020/12/01 11:14:16;748351.00;2.49;1291.19;0.00;0.00;0.62;;;;;8.90;1.00;;;;;;2272169;61;1047;-89
2020/12/01 11:16:43;838552.00;2.80;1448.44;9125.00;0.03;16.43;;;;;8.80;1.00;;;;;;2265183;61;1421;-88
2020/12/01 11:19:10;1015440.00;3.38;1759.84;24463.00;0.08;43.00;;;;;8.50;1.00;;;;;;2271761;61;933;-88